Villabona, Spain
Current Conditions -  °F | °C
As of 9:00 PM on Friday 19 Dec 2014 (Local Time) from LESO Reporting Station
Broken Clouds Broken Clouds  
Wind Chill: 54°   Ceiling: 4000
Heat Index: 54°   Visibility: 6mi
Dew Point: 46°   Wind: 3mph
Humidity: 77%   Direction: 190°S
Pressure: 30.5"   Gusts: NA
Location:  43.19°N, 2.05°W
Report Text: LESO 192000Z 19003KT 9999 SCT030 BKN040 12/08 Q1033
Loading
Personal Weather Stations






























Interactive Weather Map New forecast layout! Learn more

10-Day Weather Forecast

Advertisements
Track Severe Weather on mobile